createdAt,value
2018-08-04T00:01:58.987Z,24.72
2018-08-04T00:04:26.787Z,24.72
2018-08-04T00:06:54.087Z,24.72
2018-08-04T00:09:22.317Z,24.73
2018-08-04T00:11:50.202Z,24.73
2018-08-04T00:14:17.052Z,24.74
2018-08-04T00:16:46.729Z,24.73
2018-08-04T00:19:13.757Z,24.74
2018-08-04T00:21:41.736Z,24.72
2018-08-04T00:24:08.711Z,24.73
2018-08-04T00:26:35.469Z,24.71
2018-08-04T00:29:02.800Z,24.72
2018-08-04T00:31:32.964Z,24.72
2018-08-04T00:33:59.862Z,24.73
2018-08-04T00:36:26.866Z,24.72
2018-08-04T00:38:54.635Z,24.72
2018-08-04T00:41:21.538Z,24.72
2018-08-04T00:43:49.466Z,24.71
2018-08-04T00:46:16.337Z,24.71
2018-08-04T00:48:43.268Z,24.71
2018-08-04T00:51:10.150Z,24.72
2018-08-04T00:53:36.891Z,24.72
2018-08-04T00:56:04.918Z,24.71
2018-08-04T00:58:31.821Z,24.72
2018-08-04T01:00:59.812Z,24.70
2018-08-04T01:03:27.516Z,24.72
2018-08-04T01:05:54.460Z,24.72
2018-08-04T01:08:21.911Z,24.71
2018-08-04T01:10:49.715Z,24.71
2018-08-04T01:13:17.789Z,24.72
2018-08-04T01:15:44.725Z,24.73
2018-08-04T01:18:11.482Z,24.72
2018-08-04T01:20:38.253Z,24.72
2018-08-04T01:23:05.769Z,24.72
2018-08-04T01:25:32.550Z,24.70
2018-08-04T01:28:00.006Z,24.72
2018-08-04T01:30:27.691Z,24.71
2018-08-04T01:32:55.091Z,24.72
2018-08-04T01:35:23.790Z,24.72
2018-08-04T01:37:50.558Z,24.72
2018-08-04T01:40:18.169Z,24.71
2018-08-04T01:42:45.093Z,24.72
2018-08-04T01:45:11.849Z,24.72
2018-08-04T01:47:38.793Z,24.71
2018-08-04T01:50:05.546Z,24.72
2018-08-04T01:52:32.435Z,24.71
2018-08-04T01:55:00.778Z,24.72
2018-08-04T01:57:28.853Z,24.72
2018-08-04T01:59:57.436Z,24.72
2018-08-04T02:02:24.430Z,24.72
2018-08-04T02:04:51.189Z,24.72
2018-08-04T02:07:19.679Z,24.72
2018-08-04T02:09:47.431Z,24.72
2018-08-04T02:12:14.264Z,24.73
2018-08-04T02:14:41.023Z,24.70
2018-08-04T02:17:08.062Z,24.71
2018-08-04T02:19:36.029Z,24.71
2018-08-04T02:22:02.825Z,24.71
2018-08-04T02:24:30.592Z,24.71
2018-08-04T02:26:58.211Z,24.71
2018-08-04T02:29:25.080Z,24.71
2018-08-04T02:31:52.728Z,24.71
2018-08-04T02:34:20.300Z,24.70
2018-08-04T02:36:47.076Z,24.70
2018-08-04T02:39:13.948Z,24.70
2018-08-04T02:41:40.738Z,24.70
2018-08-04T02:44:09.204Z,24.70
2018-08-04T02:46:36.193Z,24.70
2018-08-04T02:49:02.935Z,24.69
2018-08-04T02:51:29.704Z,24.69
2018-08-04T02:53:56.455Z,24.69
2018-08-04T02:56:24.181Z,24.69
2018-08-04T02:58:51.097Z,24.68
2018-08-04T03:01:18.323Z,24.68
2018-08-04T03:03:45.854Z,24.69
2018-08-04T03:06:12.590Z,24.70
2018-08-04T03:08:40.627Z,24.70
2018-08-04T03:11:07.434Z,24.69
2018-08-04T03:13:36.518Z,24.71
2018-08-04T03:16:03.281Z,24.69
2018-08-04T03:18:30.475Z,24.70
2018-08-04T03:20:57.284Z,24.69
2018-08-04T03:23:25.021Z,24.69
2018-08-04T03:25:52.717Z,24.69
2018-08-04T03:28:21.236Z,24.68
2018-08-04T03:30:49.050Z,24.69
2018-08-04T03:33:16.663Z,24.69
2018-08-04T03:35:44.404Z,24.68
2018-08-04T03:38:12.062Z,24.67
2018-08-04T03:40:40.041Z,24.69
2018-08-04T03:43:08.894Z,24.67
2018-08-04T03:45:36.457Z,24.70
2018-08-04T03:48:05.084Z,24.69
2018-08-04T03:50:31.863Z,24.69
2018-08-04T03:53:04.400Z,24.69
2018-08-04T03:55:32.102Z,24.68
2018-08-04T03:57:59.930Z,24.68
2018-08-04T04:00:27.677Z,24.68
2018-08-04T04:03:12.766Z,24.68
2018-08-04T04:05:39.706Z,24.66
2018-08-04T04:08:10.385Z,24.67
2018-08-04T04:10:38.126Z,24.67
2018-08-04T04:13:05.975Z,24.67
2018-08-04T04:15:35.295Z,24.67
2018-08-04T04:18:03.136Z,24.68
2018-08-04T04:20:30.875Z,24.67
2018-08-04T04:22:59.493Z,24.67
2018-08-04T04:25:26.501Z,24.66
2018-08-04T04:27:54.272Z,24.67
2018-08-04T04:30:22.003Z,24.68
2018-08-04T04:32:48.776Z,24.67
2018-08-04T04:35:18.450Z,24.68
2018-08-04T04:37:45.231Z,24.67
2018-08-04T04:40:13.002Z,24.67
2018-08-04T04:42:40.590Z,24.66
2018-08-04T04:48:05.618Z,24.68
2018-08-04T04:50:33.342Z,24.69
2018-08-04T04:53:01.439Z,24.70
2018-08-04T04:55:30.492Z,24.72
2018-08-04T05:00:50.579Z,24.69
2018-08-04T05:06:12.570Z,24.69
2018-08-04T05:09:07.911Z,24.68
2018-08-04T05:17:21.268Z,24.68
2018-08-04T05:19:50.207Z,24.69
2018-08-04T05:22:18.222Z,24.70
2018-08-04T05:27:38.619Z,24.68
2018-08-04T05:30:06.105Z,24.72
2018-08-04T05:35:30.724Z,24.69
2018-08-04T05:38:11.848Z,24.72
2018-08-04T05:43:35.586Z,24.67
2018-08-04T05:46:04.321Z,24.68
2018-08-04T05:48:31.719Z,24.68
2018-08-04T05:50:59.546Z,24.68
2018-08-04T05:53:26.409Z,24.68
2018-08-04T05:58:49.946Z,24.69
2018-08-04T06:07:02.260Z,24.69
2018-08-04T06:09:29.858Z,24.70
2018-08-04T06:11:56.821Z,24.72
2018-08-04T06:14:36.904Z,24.71
2018-08-04T06:19:45.059Z,24.68
2018-08-04T06:22:13.525Z,24.69
2018-08-04T06:27:26.142Z,24.69
2018-08-04T06:29:55.685Z,24.72
2018-08-04T06:32:23.648Z,24.69
2018-08-04T06:34:52.487Z,24.70
2018-08-04T06:37:35.886Z,24.69
2018-08-04T06:46:11.802Z,24.69
2018-08-04T06:48:38.617Z,24.68
2018-08-04T06:54:12.924Z,24.67
2018-08-04T06:56:40.724Z,24.68
2018-08-04T06:59:08.872Z,24.70
2018-08-04T07:01:35.782Z,24.69
2018-08-04T07:04:02.689Z,24.68
2018-08-04T07:06:30.994Z,24.68
2018-08-04T07:09:12.326Z,24.68
2018-08-04T07:11:39.150Z,24.68
2018-08-04T07:14:08.314Z,24.67
2018-08-04T07:19:35.119Z,24.70
2018-08-04T07:22:01.847Z,24.70
2018-08-04T07:24:30.490Z,24.71
2018-08-04T07:26:57.605Z,24.69
2018-08-04T07:29:25.387Z,24.69
2018-08-04T07:31:53.324Z,24.67
2018-08-04T07:34:20.948Z,24.68
2018-08-04T07:39:45.244Z,24.68
2018-08-04T07:42:12.069Z,24.69
2018-08-04T07:44:39.243Z,24.70
2018-08-04T07:47:06.052Z,24.69
2018-08-04T07:49:34.961Z,24.68
2018-08-04T07:52:02.082Z,24.75
2018-08-04T07:54:30.781Z,24.77
2018-08-04T07:56:58.954Z,24.74
2018-08-04T07:59:26.399Z,24.73
2018-08-04T08:11:03.221Z,24.75
2018-08-04T08:13:31.827Z,24.50
2018-08-04T08:16:03.026Z,24.78
2018-08-04T08:27:14.956Z,24.72
2018-08-04T08:32:45.040Z,24.70
2018-08-04T08:35:11.883Z,24.70
2018-08-04T08:37:38.986Z,24.70
2018-08-04T08:40:06.187Z,24.71
2018-08-04T08:42:35.428Z,24.72
2018-08-04T08:45:02.159Z,24.71
2018-08-04T08:47:30.069Z,24.73
2018-08-04T08:50:05.224Z,24.72
2018-08-04T08:52:32.137Z,24.72
2018-08-04T08:55:00.015Z,24.72
2018-08-04T08:57:26.891Z,24.73
2018-08-04T09:00:00.000Z,24.71
2018-08-04T09:02:27.035Z,24.71
2018-08-04T09:04:53.884Z,24.72
2018-08-04T09:07:27.577Z,24.70
2018-08-04T09:09:54.808Z,24.72
2018-08-04T09:12:21.596Z,24.72
2018-08-04T09:20:43.792Z,24.72
2018-08-04T09:26:17.446Z,24.70
2018-08-04T09:31:30.758Z,24.67
2018-08-04T09:33:57.735Z,24.70
2018-08-04T09:39:13.032Z,24.69
2018-08-04T09:41:42.079Z,24.69
2018-08-04T09:46:54.639Z,24.68
2018-08-04T09:52:08.219Z,24.67
2018-08-04T09:54:35.927Z,24.69
2018-08-04T09:57:07.145Z,24.70
2018-08-04T09:59:38.235Z,24.72
2018-08-04T10:02:13.790Z,24.74
2018-08-04T10:04:41.561Z,24.71
2018-08-04T10:07:08.886Z,24.69
2018-08-04T10:09:37.294Z,24.69
2018-08-04T10:12:06.339Z,24.69
2018-08-04T10:14:34.955Z,24.70
2018-08-04T10:17:02.778Z,24.68
2018-08-04T10:19:36.584Z,24.67
2018-08-04T10:22:05.507Z,24.65
2018-08-04T10:24:32.702Z,24.65
2018-08-04T10:27:14.413Z,24.66
2018-08-04T10:29:45.578Z,24.68
2018-08-04T10:38:10.086Z,24.71
2018-08-04T10:46:07.955Z,24.96
2018-08-04T10:51:23.218Z,25.06
2018-08-04T10:56:48.083Z,25.12
2018-08-04T11:05:08.218Z,25.11
2018-08-04T11:07:38.620Z,25.10
2018-08-04T11:10:06.182Z,25.11
2018-08-04T11:12:32.986Z,25.10
2018-08-04T11:15:00.903Z,25.06
2018-08-04T11:17:30.368Z,25.09
2018-08-04T11:20:16.800Z,25.08
2018-08-04T11:22:47.856Z,25.05
2018-08-04T11:25:16.262Z,25.09
2018-08-04T11:27:43.820Z,25.04
2018-08-04T11:30:12.146Z,25.09
2018-08-04T11:32:39.834Z,25.06
2018-08-04T11:35:06.929Z,25.08
2018-08-04T11:37:38.473Z,25.08
2018-08-04T11:40:06.146Z,25.03
2018-08-04T11:42:35.024Z,25.04
2018-08-04T11:45:02.083Z,25.05
2018-08-04T11:47:44.072Z,25.03
2018-08-04T11:50:13.631Z,25.05
2018-08-04T11:52:40.768Z,25.02
2018-08-04T11:55:08.464Z,25.02
2018-08-04T11:57:36.122Z,25.03
2018-08-04T12:00:03.143Z,25.06
2018-08-04T12:02:35.561Z,25.06
2018-08-04T12:05:14.577Z,25.06
2018-08-04T12:07:43.029Z,25.06
2018-08-04T12:10:10.092Z,24.97
2018-08-04T12:12:43.221Z,25.04
2018-08-04T12:20:52.246Z,25.15
2018-08-04T12:23:19.019Z,25.04
2018-08-04T12:25:46.772Z,25.06
2018-08-04T12:28:13.515Z,25.07
2018-08-04T12:33:41.005Z,25.11
2018-08-04T12:36:07.876Z,25.09
2018-08-04T12:38:36.622Z,25.10
2018-08-04T12:41:03.389Z,25.06
2018-08-04T12:46:15.596Z,25.02
2018-08-04T12:48:42.370Z,25.06
2018-08-04T12:51:10.811Z,25.08
2018-08-04T12:53:39.518Z,25.07
2018-08-04T12:56:06.715Z,25.06
2018-08-04T13:04:10.099Z,25.04
2018-08-04T13:09:35.488Z,25.06
2018-08-04T13:12:03.238Z,25.06
2018-08-04T13:14:30.557Z,25.08
2018-08-04T13:16:57.256Z,25.05
2018-08-04T13:19:24.848Z,25.08
2018-08-04T13:21:52.448Z,25.05
2018-08-04T13:24:20.098Z,25.05
2018-08-04T13:26:47.551Z,24.96
2018-08-04T13:29:14.233Z,25.01
2018-08-04T13:31:40.893Z,25.05
2018-08-04T13:34:08.405Z,25.05
2018-08-04T13:36:39.718Z,25.07
2018-08-04T13:41:53.380Z,25.07
2018-08-04T13:44:20.928Z,25.06
2018-08-04T13:46:48.497Z,25.06
2018-08-04T13:49:15.148Z,25.07
2018-08-04T13:51:41.812Z,25.06
2018-08-04T13:54:08.476Z,25.05
2018-08-04T13:56:35.774Z,25.02
2018-08-04T13:59:02.448Z,25.01
2018-08-04T14:01:30.141Z,25.00
2018-08-04T14:03:56.796Z,25.01
2018-08-04T14:06:23.470Z,25.01
2018-08-04T14:08:51.061Z,25.04
2018-08-04T14:11:17.704Z,25.02
2018-08-04T14:13:44.424Z,25.02
2018-08-04T14:16:11.076Z,25.01
2018-08-04T14:18:38.532Z,25.00
2018-08-04T14:21:06.092Z,24.99
2018-08-04T14:23:33.820Z,24.99
2018-08-04T14:26:01.377Z,25.01
2018-08-04T14:28:28.072Z,24.99
2018-08-04T14:30:55.679Z,24.98
2018-08-04T14:33:22.376Z,24.99
2018-08-04T14:35:49.836Z,24.99
2018-08-04T14:38:17.387Z,24.98
2018-08-04T14:40:45.025Z,24.99
2018-08-04T14:43:12.624Z,24.97
2018-08-04T14:45:40.093Z,24.99
2018-08-04T14:48:07.855Z,24.96
2018-08-04T14:50:35.335Z,24.99
2018-08-04T14:53:03.117Z,24.99
2018-08-04T14:55:30.707Z,24.99
2018-08-04T14:57:58.201Z,24.98
2018-08-04T15:00:26.589Z,24.99
2018-08-04T15:02:54.089Z,24.99
2018-08-04T15:05:21.764Z,24.96
2018-08-04T15:07:49.349Z,24.96
2018-08-04T15:10:16.836Z,24.97
2018-08-04T15:12:44.272Z,24.96
2018-08-04T15:15:10.937Z,24.96
2018-08-04T15:17:37.617Z,24.94
2018-08-04T15:20:05.362Z,24.94
2018-08-04T15:22:32.057Z,24.93
2018-08-04T15:25:00.432Z,24.93
2018-08-04T15:27:27.106Z,24.91
2018-08-04T15:29:53.784Z,24.91
2018-08-04T15:32:20.476Z,24.91
2018-08-04T15:34:47.976Z,24.92
2018-08-04T15:37:15.573Z,24.83
2018-08-04T15:39:43.157Z,24.90
2018-08-04T15:42:09.829Z,24.91
2018-08-04T15:44:36.488Z,24.92
2018-08-04T15:47:03.137Z,24.90
2018-08-04T15:49:30.452Z,24.91
2018-08-04T15:51:57.117Z,24.92
2018-08-04T15:54:23.784Z,24.91
2018-08-04T15:56:50.442Z,24.91
2018-08-04T15:59:17.244Z,24.91
2018-08-04T16:01:43.900Z,24.92
2018-08-04T16:04:10.689Z,24.91
2018-08-04T16:06:37.357Z,24.92
2018-08-04T16:09:05.757Z,24.93
2018-08-04T16:11:32.417Z,24.93
2018-08-04T16:13:59.900Z,24.95
2018-08-04T16:16:26.600Z,24.94
2018-08-04T16:18:54.244Z,24.94
2018-08-04T16:21:21.877Z,24.94
2018-08-04T16:23:49.507Z,24.94
2018-08-04T16:26:16.808Z,24.93
2018-08-04T16:28:44.476Z,24.94
2018-08-04T16:31:12.116Z,24.95
2018-08-04T16:33:39.739Z,24.95
2018-08-04T16:36:06.389Z,24.93
2018-08-04T16:38:35.208Z,24.95
2018-08-04T16:41:02.817Z,24.95
2018-08-04T16:43:30.426Z,24.95
2018-08-04T16:45:57.961Z,24.94
2018-08-04T16:48:25.448Z,24.95
2018-08-04T16:50:53.237Z,24.92
2018-08-04T16:53:20.760Z,24.92
2018-08-04T16:55:48.392Z,24.94
2018-08-04T16:58:15.997Z,24.94
2018-08-04T17:00:43.570Z,24.94
2018-08-04T17:03:10.212Z,24.92
2018-08-04T17:05:37.680Z,24.93
2018-08-04T17:08:05.416Z,24.92
2018-08-04T17:10:32.061Z,24.91
2018-08-04T17:12:58.748Z,24.92
2018-08-04T17:15:25.392Z,24.93
2018-08-04T17:17:52.048Z,24.92
2018-08-04T17:20:18.760Z,24.93
2018-08-04T17:22:45.416Z,24.92
2018-08-04T17:25:12.105Z,24.93
2018-08-04T17:27:38.776Z,24.93
2018-08-04T17:30:05.452Z,24.94
2018-08-04T17:32:32.389Z,24.95
2018-08-04T17:35:00.090Z,24.95
2018-08-04T17:37:26.807Z,24.94
2018-08-04T17:39:53.505Z,24.93
2018-08-04T17:42:20.153Z,24.95
2018-08-04T17:44:46.815Z,24.96
2018-08-04T17:47:14.288Z,24.94
2018-08-04T17:49:41.933Z,24.93
2018-08-04T17:52:09.555Z,24.94
2018-08-04T17:54:36.222Z,24.93
2018-08-04T17:57:02.985Z,24.92
2018-08-04T17:59:30.627Z,24.93
2018-08-04T18:01:58.336Z,24.94
2018-08-04T18:04:26.438Z,24.94
2018-08-04T18:06:53.113Z,24.93
2018-08-04T18:09:19.776Z,24.92
2018-08-04T18:11:46.424Z,24.92
2018-08-04T18:14:14.081Z,24.92
2018-08-04T18:16:40.740Z,24.90
2018-08-04T18:19:07.396Z,24.91
2018-08-04T18:21:35.668Z,24.92
2018-08-04T18:24:02.324Z,24.93
2018-08-04T18:26:30.065Z,24.92
2018-08-04T18:28:56.723Z,24.92
2018-08-04T18:31:23.388Z,24.92
2018-08-04T18:33:50.060Z,24.91
2018-08-04T18:36:16.765Z,24.93
2018-08-04T18:38:44.266Z,24.93
2018-08-04T18:41:11.733Z,24.91
2018-08-04T18:43:39.336Z,24.92
2018-08-04T18:46:06.032Z,24.91
2018-08-04T18:48:32.700Z,24.92
2018-08-04T18:51:00.440Z,24.91
2018-08-04T18:53:27.972Z,24.90
2018-08-04T18:55:54.809Z,24.91
2018-08-04T18:58:22.373Z,24.92
2018-08-04T19:00:49.033Z,24.90
2018-08-04T19:03:15.692Z,24.91
2018-08-04T19:05:42.397Z,24.91
2018-08-04T19:08:09.056Z,24.92
2018-08-04T19:10:35.733Z,24.92
2018-08-04T19:13:02.429Z,24.92
2018-08-04T19:15:31.443Z,24.91
2018-08-04T19:17:58.095Z,24.92
2018-08-04T19:20:24.797Z,24.89
2018-08-04T19:22:51.573Z,24.90
2018-08-04T19:25:18.253Z,24.90
2018-08-04T19:27:44.970Z,24.90
2018-08-04T19:30:11.602Z,24.90
2018-08-04T19:32:38.265Z,24.88
2018-08-04T19:35:06.066Z,24.88
2018-08-04T19:37:32.716Z,24.89
2018-08-04T19:40:00.325Z,24.90
2018-08-04T19:42:26.976Z,24.87
2018-08-04T19:44:53.625Z,24.87
2018-08-04T19:47:25.068Z,24.88
2018-08-04T19:49:51.753Z,24.84
2018-08-04T19:52:18.402Z,24.87
2018-08-04T19:54:45.049Z,24.86
2018-08-04T19:57:11.722Z,24.87
2018-08-04T19:59:39.107Z,24.88
2018-08-04T20:02:05.837Z,24.95
2018-08-04T20:04:32.497Z,24.91
2018-08-04T20:07:01.181Z,24.88
2018-08-04T20:09:27.833Z,24.93
2018-08-04T20:11:54.484Z,25.00
2018-08-04T20:14:21.154Z,25.01
2018-08-04T20:16:47.827Z,24.97
2018-08-04T20:19:14.498Z,24.96
2018-08-04T20:21:41.140Z,24.96
2018-08-04T20:24:07.812Z,24.95
2018-08-04T20:26:35.748Z,24.93
2018-08-04T20:29:03.373Z,24.95
2018-08-04T20:31:30.738Z,24.93
2018-08-04T20:33:57.420Z,24.93
2018-08-04T20:36:25.021Z,24.94
2018-08-04T20:38:53.687Z,24.92
2018-08-04T20:41:21.171Z,24.92
2018-08-04T20:43:47.818Z,24.92
2018-08-04T20:46:14.468Z,24.92
2018-08-04T20:48:41.118Z,24.93
2018-08-04T20:51:07.757Z,24.93
2018-08-04T20:53:35.045Z,24.93
2018-08-04T20:56:01.695Z,24.92
2018-08-04T20:58:30.472Z,24.92
2018-08-04T21:01:02.793Z,24.91
2018-08-04T21:03:29.900Z,24.89
2018-08-04T21:05:57.420Z,24.91
2018-08-04T21:08:27.105Z,24.92
2018-08-04T21:10:53.794Z,24.91
2018-08-04T21:13:20.788Z,24.90
2018-08-04T21:15:48.438Z,24.91
2018-08-04T21:18:15.113Z,24.91
2018-08-04T21:20:42.744Z,24.91
2018-08-04T21:23:09.401Z,24.90
2018-08-04T21:25:36.049Z,24.90
2018-08-04T21:28:02.797Z,24.89
2018-08-04T21:30:30.834Z,24.89
2018-08-04T21:32:57.510Z,24.90
2018-08-04T21:35:24.172Z,24.89
2018-08-04T21:37:50.862Z,24.90
2018-08-04T21:40:17.521Z,24.89
2018-08-04T21:42:44.197Z,24.89
2018-08-04T21:45:10.909Z,24.89
2018-08-04T21:47:37.588Z,24.89
2018-08-04T21:50:05.481Z,24.88
2018-08-04T21:52:32.196Z,24.89
2018-08-04T21:54:58.921Z,24.89
2018-08-04T21:57:25.668Z,24.89
2018-08-04T21:59:52.344Z,24.89
2018-08-04T22:02:18.999Z,24.90
2018-08-04T22:04:45.675Z,24.89
2018-08-04T22:07:44.108Z,24.88
2018-08-04T22:10:12.037Z,24.86
2018-08-04T22:12:38.681Z,24.87
2018-08-04T22:15:05.622Z,24.87
2018-08-04T22:17:33.334Z,24.88
2018-08-04T22:20:00.933Z,24.88
2018-08-04T22:22:27.592Z,24.89
2018-08-04T22:24:54.506Z,24.88
2018-08-04T22:27:21.205Z,24.89
2018-08-04T22:29:47.944Z,24.88
2018-08-04T22:32:14.623Z,24.88
2018-08-04T22:34:42.180Z,24.88
2018-08-04T22:37:09.781Z,24.88
2018-08-04T22:39:36.533Z,24.88
2018-08-04T22:42:04.909Z,24.88
2018-08-04T22:44:32.690Z,24.87
2018-08-04T22:47:01.585Z,24.86
2018-08-04T22:49:29.802Z,24.87
2018-08-04T22:51:57.410Z,24.87
2018-08-04T22:54:24.060Z,24.88
2018-08-04T22:56:50.730Z,24.87
2018-08-04T22:59:17.412Z,24.87
2018-08-04T23:01:46.082Z,24.86
2018-08-04T23:04:13.274Z,24.87
2018-08-04T23:06:40.981Z,24.87
2018-08-04T23:09:07.685Z,24.87
2018-08-04T23:11:35.546Z,24.87
2018-08-04T23:14:02.249Z,24.87
2018-08-04T23:16:28.972Z,24.87
2018-08-04T23:18:56.564Z,24.86
2018-08-04T23:21:23.217Z,24.86
2018-08-04T23:23:49.880Z,24.86
2018-08-04T23:26:16.550Z,24.87
2018-08-04T23:28:43.211Z,24.86
2018-08-04T23:31:09.872Z,24.86
2018-08-04T23:33:36.580Z,24.84
2018-08-04T23:36:03.241Z,24.87
2018-08-04T23:38:35.925Z,24.84
2018-08-04T23:41:02.621Z,24.84
2018-08-04T23:43:30.260Z,24.86
2018-08-04T23:45:57.750Z,24.85
2018-08-04T23:48:24.457Z,24.85
2018-08-04T23:50:51.127Z,24.85
2018-08-04T23:53:17.800Z,24.85
2018-08-04T23:55:46.633Z,24.84
2018-08-04T23:58:14.212Z,24.84
